sensor_id;sensor_type;location;lat;lon;timestamp;temperature;humidity
46552;DHT22;32278;51.810;4.712;2022-10-16T00:00:34;14.10;99.90
46552;DHT22;32278;51.810;4.712;2022-10-16T00:03:00;14.20;99.90
46552;DHT22;32278;51.810;4.712;2022-10-16T00:05:25;14.30;99.90
46552;DHT22;32278;51.810;4.712;2022-10-16T00:07:51;14.20;99.90
46552;DHT22;32278;51.810;4.712;2022-10-16T00:10:17;14.20;99.90
46552;DHT22;32278;51.810;4.712;2022-10-16T00:12:42;14.20;99.90
46552;DHT22;32278;51.810;4.712;2022-10-16T00:15:08;14.20;99.90
46552;DHT22;32278;51.810;4.712;2022-10-16T00:17:34;14.20;99.90
46552;DHT22;32278;51.810;4.712;2022-10-16T00:20:00;14.20;99.90
46552;DHT22;32278;51.810;4.712;2022-10-16T00:22:25;14.30;99.90
46552;DHT22;32278;51.810;4.712;2022-10-16T00:24:51;14.40;99.90
46552;DHT22;32278;51.810;4.712;2022-10-16T00:27:16;14.40;99.90
46552;DHT22;32278;51.810;4.712;2022-10-16T00:29:42;14.40;99.90
46552;DHT22;32278;51.810;4.712;2022-10-16T00:32:08;14.40;99.90
46552;DHT22;32278;51.810;4.712;2022-10-16T00:34:34;14.40;99.90
46552;DHT22;32278;51.810;4.712;2022-10-16T00:37:00;14.40;99.90
46552;DHT22;32278;51.810;4.712;2022-10-16T00:39:26;14.50;99.90
46552;DHT22;32278;51.810;4.712;2022-10-16T00:41:51;14.50;99.90
46552;DHT22;32278;51.810;4.712;2022-10-16T00:47:47;14.50;99.90
46552;DHT22;32278;51.810;4.712;2022-10-16T00:50:28;14.40;99.90
46552;DHT22;32278;51.810;4.712;2022-10-16T00:52:55;14.50;99.90
46552;DHT22;32278;51.810;4.712;2022-10-16T00:55:21;14.50;99.90
46552;DHT22;32278;51.810;4.712;2022-10-16T00:57:48;14.50;99.90
46552;DHT22;32278;51.810;4.712;2022-10-16T01:00:20;14.60;99.90
46552;DHT22;32278;51.810;4.712;2022-10-16T01:03:01;14.60;99.90
46552;DHT22;32278;51.810;4.712;2022-10-16T01:05:45;14.60;99.90
46552;DHT22;32278;51.810;4.712;2022-10-16T01:08:18;14.70;99.90
46552;DHT22;32278;51.810;4.712;2022-10-16T01:13:54;14.70;99.90
46552;DHT22;32278;51.810;4.712;2022-10-16T01:16:36;14.60;99.90
46552;DHT22;32278;51.810;4.712;2022-10-16T01:19:17;14.60;99.90
46552;DHT22;32278;51.810;4.712;2022-10-16T01:21:47;14.60;99.90
46552;DHT22;32278;51.810;4.712;2022-10-16T01:24:46;14.60;99.90
46552;DHT22;32278;51.810;4.712;2022-10-16T01:27:27;14.60;99.90
46552;DHT22;32278;51.810;4.712;2022-10-16T01:30:06;14.60;99.90
46552;DHT22;32278;51.810;4.712;2022-10-16T01:32:41;14.60;99.90
46552;DHT22;32278;51.810;4.712;2022-10-16T01:35:25;14.60;99.90
46552;DHT22;32278;51.810;4.712;2022-10-16T01:38:08;14.60;99.90
46552;DHT22;32278;51.810;4.712;2022-10-16T01:40:37;14.50;99.90
46552;DHT22;32278;51.810;4.712;2022-10-16T01:43:24;14.60;99.90
46552;DHT22;32278;51.810;4.712;2022-10-16T01:45:51;14.50;99.90
46552;DHT22;32278;51.810;4.712;2022-10-16T01:48:19;14.50;99.90
46552;DHT22;32278;51.810;4.712;2022-10-16T01:50:55;14.50;99.90
46552;DHT22;32278;51.810;4.712;2022-10-16T01:53:22;14.50;99.90
46552;DHT22;32278;51.810;4.712;2022-10-16T01:55:50;14.50;99.90
46552;DHT22;32278;51.810;4.712;2022-10-16T01:58:17;14.50;99.90
46552;DHT22;32278;51.810;4.712;2022-10-16T02:00:45;14.50;99.90
46552;DHT22;32278;51.810;4.712;2022-10-16T02:03:12;14.40;99.90
46552;DHT22;32278;51.810;4.712;2022-10-16T02:05:52;14.40;99.90
46552;DHT22;32278;51.810;4.712;2022-10-16T02:08:20;14.40;99.90
46552;DHT22;32278;51.810;4.712;2022-10-16T02:10:46;14.40;99.90
46552;DHT22;32278;51.810;4.712;2022-10-16T02:13:29;14.40;99.90
46552;DHT22;32278;51.810;4.712;2022-10-16T02:15:56;14.40;99.90
46552;DHT22;32278;51.810;4.712;2022-10-16T02:18:22;14.50;99.90
46552;DHT22;32278;51.810;4.712;2022-10-16T02:21:01;14.50;99.90
46552;DHT22;32278;51.810;4.712;2022-10-16T02:23:37;14.50;99.90
46552;DHT22;32278;51.810;4.712;2022-10-16T02:26:09;14.50;99.90
46552;DHT22;32278;51.810;4.712;2022-10-16T02:28:44;14.50;99.90
46552;DHT22;32278;51.810;4.712;2022-10-16T02:31:13;14.50;99.90
46552;DHT22;32278;51.810;4.712;2022-10-16T02:33:42;14.50;99.90
46552;DHT22;32278;51.810;4.712;2022-10-16T02:36:08;14.60;99.90
46552;DHT22;32278;51.810;4.712;2022-10-16T02:38:34;14.50;99.90
46552;DHT22;32278;51.810;4.712;2022-10-16T02:41:00;14.60;99.90
46552;DHT22;32278;51.810;4.712;2022-10-16T02:43:26;14.60;99.90
46552;DHT22;32278;51.810;4.712;2022-10-16T02:45:52;14.60;99.90
46552;DHT22;32278;51.810;4.712;2022-10-16T02:48:17;14.50;99.90
46552;DHT22;32278;51.810;4.712;2022-10-16T02:50:43;14.60;99.90
46552;DHT22;32278;51.810;4.712;2022-10-16T02:53:09;14.60;99.90
46552;DHT22;32278;51.810;4.712;2022-10-16T02:55:34;14.60;99.90
46552;DHT22;32278;51.810;4.712;2022-10-16T02:58:00;14.60;99.90
46552;DHT22;32278;51.810;4.712;2022-10-16T03:00:25;14.60;99.90
46552;DHT22;32278;51.810;4.712;2022-10-16T03:02:51;14.60;99.90
46552;DHT22;32278;51.810;4.712;2022-10-16T03:05:17;14.60;99.90
46552;DHT22;32278;51.810;4.712;2022-10-16T03:07:43;14.60;99.90
46552;DHT22;32278;51.810;4.712;2022-10-16T03:10:08;14.60;99.90
46552;DHT22;32278;51.810;4.712;2022-10-16T03:12:34;14.60;99.90
46552;DHT22;32278;51.810;4.712;2022-10-16T03:14:59;14.60;99.90
46552;DHT22;32278;51.810;4.712;2022-10-16T03:17:25;14.60;99.90
46552;DHT22;32278;51.810;4.712;2022-10-16T03:19:51;14.60;99.90
46552;DHT22;32278;51.810;4.712;2022-10-16T03:22:17;14.60;99.90
46552;DHT22;32278;51.810;4.712;2022-10-16T03:24:42;14.60;99.90
46552;DHT22;32278;51.810;4.712;2022-10-16T03:27:08;14.60;99.90
46552;DHT22;32278;51.810;4.712;2022-10-16T03:29:34;14.60;99.90
46552;DHT22;32278;51.810;4.712;2022-10-16T03:32:00;14.60;99.90
46552;DHT22;32278;51.810;4.712;2022-10-16T03:34:26;14.60;99.90
46552;DHT22;32278;51.810;4.712;2022-10-16T03:36:52;14.70;99.90
46552;DHT22;32278;51.810;4.712;2022-10-16T03:39:18;14.60;99.90
46552;DHT22;32278;51.810;4.712;2022-10-16T03:41:43;14.60;99.90
46552;DHT22;32278;51.810;4.712;2022-10-16T03:44:09;14.70;99.90
46552;DHT22;32278;51.810;4.712;2022-10-16T03:46:35;14.60;99.90
46552;DHT22;32278;51.810;4.712;2022-10-16T03:49:00;14.70;99.90
46552;DHT22;32278;51.810;4.712;2022-10-16T03:51:26;14.70;99.90
46552;DHT22;32278;51.810;4.712;2022-10-16T03:53:51;14.60;99.90
46552;DHT22;32278;51.810;4.712;2022-10-16T03:56:17;14.60;99.90
46552;DHT22;32278;51.810;4.712;2022-10-16T03:58:43;14.60;99.90
46552;DHT22;32278;51.810;4.712;2022-10-16T04:01:08;14.60;99.90
46552;DHT22;32278;51.810;4.712;2022-10-16T04:03:34;14.60;99.90
46552;DHT22;32278;51.810;4.712;2022-10-16T04:06:00;14.60;99.90
46552;DHT22;32278;51.810;4.712;2022-10-16T04:08:25;14.60;99.90
46552;DHT22;32278;51.810;4.712;2022-10-16T04:10:51;14.50;99.90
46552;DHT22;32278;51.810;4.712;2022-10-16T04:13:16;14.60;99.90
46552;DHT22;32278;51.810;4.712;2022-10-16T04:15:42;14.50;99.90
46552;DHT22;32278;51.810;4.712;2022-10-16T04:18:09;14.50;99.90
46552;DHT22;32278;51.810;4.712;2022-10-16T04:20:35;14.50;99.90
46552;DHT22;32278;51.810;4.712;2022-10-16T04:23:00;14.50;99.90
46552;DHT22;32278;51.810;4.712;2022-10-16T04:25:26;14.50;99.90
46552;DHT22;32278;51.810;4.712;2022-10-16T04:27:55;14.50;99.90
46552;DHT22;32278;51.810;4.712;2022-10-16T04:30:21;14.50;99.90
46552;DHT22;32278;51.810;4.712;2022-10-16T04:32:51;14.50;99.90
46552;DHT22;32278;51.810;4.712;2022-10-16T04:35:18;14.50;99.90
46552;DHT22;32278;51.810;4.712;2022-10-16T04:37:44;14.40;99.90
46552;DHT22;32278;51.810;4.712;2022-10-16T04:40:10;14.50;99.90
46552;DHT22;32278;51.810;4.712;2022-10-16T04:42:36;14.40;99.90
46552;DHT22;32278;51.810;4.712;2022-10-16T04:45:02;14.50;99.90
46552;DHT22;32278;51.810;4.712;2022-10-16T04:47:28;14.40;99.90
46552;DHT22;32278;51.810;4.712;2022-10-16T04:49:54;14.40;99.90
46552;DHT22;32278;51.810;4.712;2022-10-16T04:52:19;14.50;99.90
46552;DHT22;32278;51.810;4.712;2022-10-16T04:54:46;14.50;99.90
46552;DHT22;32278;51.810;4.712;2022-10-16T04:57:12;14.50;99.90
46552;DHT22;32278;51.810;4.712;2022-10-16T04:59:38;14.50;99.90
46552;DHT22;32278;51.810;4.712;2022-10-16T05:02:03;14.50;99.90
46552;DHT22;32278;51.810;4.712;2022-10-16T05:04:29;14.50;99.90
46552;DHT22;32278;51.810;4.712;2022-10-16T05:06:55;14.60;99.90
46552;DHT22;32278;51.810;4.712;2022-10-16T05:09:20;14.60;99.90
46552;DHT22;32278;51.810;4.712;2022-10-16T05:11:46;14.60;99.90
46552;DHT22;32278;51.810;4.712;2022-10-16T05:14:11;14.60;99.90
46552;DHT22;32278;51.810;4.712;2022-10-16T05:16:37;14.70;99.90
46552;DHT22;32278;51.810;4.712;2022-10-16T05:19:03;14.70;99.90
46552;DHT22;32278;51.810;4.712;2022-10-16T05:21:28;14.70;99.90
46552;DHT22;32278;51.810;4.712;2022-10-16T05:23:54;14.60;99.90
46552;DHT22;32278;51.810;4.712;2022-10-16T05:26:20;14.70;99.90
46552;DHT22;32278;51.810;4.712;2022-10-16T05:28:46;14.70;99.90
46552;DHT22;32278;51.810;4.712;2022-10-16T05:31:11;14.70;99.90
46552;DHT22;32278;51.810;4.712;2022-10-16T05:33:37;14.70;99.90
46552;DHT22;32278;51.810;4.712;2022-10-16T05:36:04;14.70;99.90
46552;DHT22;32278;51.810;4.712;2022-10-16T05:38:31;14.70;99.90
46552;DHT22;32278;51.810;4.712;2022-10-16T05:40:57;14.70;99.90
46552;DHT22;32278;51.810;4.712;2022-10-16T05:43:23;14.90;99.90
46552;DHT22;32278;51.810;4.712;2022-10-16T05:46:01;14.80;99.90
46552;DHT22;32278;51.810;4.712;2022-10-16T05:48:27;14.80;99.90
46552;DHT22;32278;51.810;4.712;2022-10-16T05:51:00;14.80;99.90
46552;DHT22;32278;51.810;4.712;2022-10-16T05:53:27;14.80;99.90
46552;DHT22;32278;51.810;4.712;2022-10-16T05:55:54;14.80;99.90
46552;DHT22;32278;51.810;4.712;2022-10-16T05:58:20;14.90;99.90
46552;DHT22;32278;51.810;4.712;2022-10-16T06:00:56;14.80;99.90
46552;DHT22;32278;51.810;4.712;2022-10-16T06:03:22;14.80;99.90
46552;DHT22;32278;51.810;4.712;2022-10-16T06:05:48;14.80;99.90
46552;DHT22;32278;51.810;4.712;2022-10-16T06:08:13;14.80;99.90
46552;DHT22;32278;51.810;4.712;2022-10-16T06:10:39;14.90;99.90
46552;DHT22;32278;51.810;4.712;2022-10-16T06:13:05;14.80;99.90
46552;DHT22;32278;51.810;4.712;2022-10-16T06:15:30;14.80;99.90
46552;DHT22;32278;51.810;4.712;2022-10-16T06:17:56;14.80;99.90
46552;DHT22;32278;51.810;4.712;2022-10-16T06:20:21;14.80;99.90
46552;DHT22;32278;51.810;4.712;2022-10-16T06:22:47;14.80;99.90
46552;DHT22;32278;51.810;4.712;2022-10-16T06:25:13;14.80;99.90
46552;DHT22;32278;51.810;4.712;2022-10-16T06:27:41;14.80;99.90
46552;DHT22;32278;51.810;4.712;2022-10-16T06:30:07;14.80;99.90
46552;DHT22;32278;51.810;4.712;2022-10-16T06:32:33;14.80;99.90
46552;DHT22;32278;51.810;4.712;2022-10-16T06:34:59;14.80;99.90
46552;DHT22;32278;51.810;4.712;2022-10-16T06:37:24;14.90;99.90
46552;DHT22;32278;51.810;4.712;2022-10-16T06:39:50;15.00;99.90
46552;DHT22;32278;51.810;4.712;2022-10-16T06:42:18;15.00;99.90
46552;DHT22;32278;51.810;4.712;2022-10-16T06:44:43;15.10;99.90
46552;DHT22;32278;51.810;4.712;2022-10-16T06:47:09;15.10;99.90
46552;DHT22;32278;51.810;4.712;2022-10-16T06:49:35;15.10;99.90
46552;DHT22;32278;51.810;4.712;2022-10-16T06:52:01;15.10;99.90
46552;DHT22;32278;51.810;4.712;2022-10-16T06:54:27;15.20;99.90
46552;DHT22;32278;51.810;4.712;2022-10-16T06:56:53;15.20;99.90
46552;DHT22;32278;51.810;4.712;2022-10-16T06:59:20;15.10;99.90
46552;DHT22;32278;51.810;4.712;2022-10-16T07:01:47;15.20;99.90
46552;DHT22;32278;51.810;4.712;2022-10-16T07:04:12;15.10;99.90
46552;DHT22;32278;51.810;4.712;2022-10-16T07:06:39;15.10;99.90
46552;DHT22;32278;51.810;4.712;2022-10-16T07:09:06;15.10;99.90
46552;DHT22;32278;51.810;4.712;2022-10-16T07:11:32;15.10;99.90
46552;DHT22;32278;51.810;4.712;2022-10-16T07:13:58;15.00;99.90
46552;DHT22;32278;51.810;4.712;2022-10-16T07:16:28;15.00;99.90
46552;DHT22;32278;51.810;4.712;2022-10-16T07:18:56;15.00;99.90
46552;DHT22;32278;51.810;4.712;2022-10-16T07:21:25;15.00;99.90
46552;DHT22;32278;51.810;4.712;2022-10-16T07:23:59;15.10;99.90
46552;DHT22;32278;51.810;4.712;2022-10-16T07:26:25;15.10;99.90
46552;DHT22;32278;51.810;4.712;2022-10-16T07:28:51;15.00;99.90
46552;DHT22;32278;51.810;4.712;2022-10-16T07:31:19;15.10;99.90
46552;DHT22;32278;51.810;4.712;2022-10-16T07:33:45;15.10;99.90
46552;DHT22;32278;51.810;4.712;2022-10-16T07:36:13;15.10;99.90
46552;DHT22;32278;51.810;4.712;2022-10-16T07:38:39;15.20;99.90
46552;DHT22;32278;51.810;4.712;2022-10-16T07:41:06;15.20;99.90
46552;DHT22;32278;51.810;4.712;2022-10-16T07:43:33;15.20;99.90
46552;DHT22;32278;51.810;4.712;2022-10-16T07:45:59;15.20;99.90
46552;DHT22;32278;51.810;4.712;2022-10-16T07:48:28;15.30;99.90
46552;DHT22;32278;51.810;4.712;2022-10-16T07:51:05;15.30;99.90
46552;DHT22;32278;51.810;4.712;2022-10-16T07:53:31;15.30;99.90
46552;DHT22;32278;51.810;4.712;2022-10-16T07:56:02;15.30;99.90
46552;DHT22;32278;51.810;4.712;2022-10-16T07:58:28;15.20;99.90
46552;DHT22;32278;51.810;4.712;2022-10-16T08:00:55;15.30;99.90
46552;DHT22;32278;51.810;4.712;2022-10-16T08:03:20;15.20;99.90
46552;DHT22;32278;51.810;4.712;2022-10-16T08:05:46;15.30;99.90
46552;DHT22;32278;51.810;4.712;2022-10-16T08:08:13;15.40;99.90
46552;DHT22;32278;51.810;4.712;2022-10-16T08:10:40;15.40;99.90
46552;DHT22;32278;51.810;4.712;2022-10-16T08:13:05;15.40;99.90
46552;DHT22;32278;51.810;4.712;2022-10-16T08:15:31;15.40;99.90
46552;DHT22;32278;51.810;4.712;2022-10-16T08:17:58;15.50;99.90
46552;DHT22;32278;51.810;4.712;2022-10-16T08:20:25;15.60;99.90
46552;DHT22;32278;51.810;4.712;2022-10-16T08:22:51;15.70;99.90
46552;DHT22;32278;51.810;4.712;2022-10-16T08:25:17;15.80;99.90
46552;DHT22;32278;51.810;4.712;2022-10-16T08:27:42;15.80;99.90
46552;DHT22;32278;51.810;4.712;2022-10-16T08:30:10;15.90;99.90
46552;DHT22;32278;51.810;4.712;2022-10-16T08:32:36;15.90;99.90
46552;DHT22;32278;51.810;4.712;2022-10-16T08:35:01;15.80;99.90
46552;DHT22;32278;51.810;4.712;2022-10-16T08:37:31;16.00;99.90
46552;DHT22;32278;51.810;4.712;2022-10-16T08:39:58;16.00;99.90
46552;DHT22;32278;51.810;4.712;2022-10-16T08:42:46;16.00;99.90
46552;DHT22;32278;51.810;4.712;2022-10-16T08:48:07;16.30;99.90
46552;DHT22;32278;51.810;4.712;2022-10-16T08:50:37;16.40;99.90
46552;DHT22;32278;51.810;4.712;2022-10-16T08:53:04;16.40;99.90
46552;DHT22;32278;51.810;4.712;2022-10-16T08:58:17;16.50;99.90
46552;DHT22;32278;51.810;4.712;2022-10-16T09:00:46;16.50;99.90
46552;DHT22;32278;51.810;4.712;2022-10-16T09:06:03;16.20;99.90
46552;DHT22;32278;51.810;4.712;2022-10-16T09:08:38;16.20;99.90
46552;DHT22;32278;51.810;4.712;2022-10-16T09:14:32;16.30;99.90
46552;DHT22;32278;51.810;4.712;2022-10-16T09:16:37;16.20;99.90
46552;DHT22;32278;51.810;4.712;2022-10-16T09:19:24;16.20;99.90
46552;DHT22;32278;51.810;4.712;2022-10-16T09:21:51;16.10;99.90
46552;DHT22;32278;51.810;4.712;2022-10-16T09:24:21;16.20;99.90
46552;DHT22;32278;51.810;4.712;2022-10-16T09:26:47;16.30;99.90
46552;DHT22;32278;51.810;4.712;2022-10-16T09:29:14;16.30;99.90
46552;DHT22;32278;51.810;4.712;2022-10-16T09:31:42;16.20;99.90
46552;DHT22;32278;51.810;4.712;2022-10-16T09:34:30;16.20;99.90
46552;DHT22;32278;51.810;4.712;2022-10-16T09:36:57;16.30;99.90
46552;DHT22;32278;51.810;4.712;2022-10-16T09:39:24;16.20;99.90
46552;DHT22;32278;51.810;4.712;2022-10-16T09:41:50;16.30;99.90
46552;DHT22;32278;51.810;4.712;2022-10-16T09:44:23;16.40;99.90
46552;DHT22;32278;51.810;4.712;2022-10-16T09:47:01;16.50;99.90
46552;DHT22;32278;51.810;4.712;2022-10-16T09:49:26;16.60;99.90
46552;DHT22;32278;51.810;4.712;2022-10-16T09:52:13;16.70;99.90
46552;DHT22;32278;51.810;4.712;2022-10-16T09:54:53;16.60;99.90
46552;DHT22;32278;51.810;4.712;2022-10-16T09:57:20;16.50;99.90
46552;DHT22;32278;51.810;4.712;2022-10-16T09:59:57;16.60;99.90
46552;DHT22;32278;51.810;4.712;2022-10-16T10:04:55;16.70;99.90
46552;DHT22;32278;51.810;4.712;2022-10-16T10:07:32;16.80;99.90
46552;DHT22;32278;51.810;4.712;2022-10-16T10:10:00;16.80;99.90
46552;DHT22;32278;51.810;4.712;2022-10-16T10:12:30;16.80;99.90
46552;DHT22;32278;51.810;4.712;2022-10-16T10:15:07;16.80;99.90
46552;DHT22;32278;51.810;4.712;2022-10-16T10:17:46;16.70;99.90
46552;DHT22;32278;51.810;4.712;2022-10-16T10:22:42;16.80;99.90
46552;DHT22;32278;51.810;4.712;2022-10-16T10:25:18;16.80;99.90
46552;DHT22;32278;51.810;4.712;2022-10-16T10:28:06;17.00;99.90
46552;DHT22;32278;51.810;4.712;2022-10-16T10:44:14;17.20;99.90
46552;DHT22;32278;51.810;4.712;2022-10-16T10:46:48;17.30;99.90
46552;DHT22;32278;51.810;4.712;2022-10-16T10:49:37;17.20;99.90
46552;DHT22;32278;51.810;4.712;2022-10-16T10:52:31;17.00;99.90
46552;DHT22;32278;51.810;4.712;2022-10-16T11:06:18;17.40;99.90
46552;DHT22;32278;51.810;4.712;2022-10-16T11:17:23;17.60;99.90
46552;DHT22;32278;51.810;4.712;2022-10-16T11:22:37;18.00;99.90
46552;DHT22;32278;51.810;4.712;2022-10-16T11:30:29;18.00;99.90
46552;DHT22;32278;51.810;4.712;2022-10-16T11:35:51;18.50;99.90
46552;DHT22;32278;51.810;4.712;2022-10-16T11:38:23;18.60;99.90
46552;DHT22;32278;51.810;4.712;2022-10-16T11:40:54;18.40;99.90
46552;DHT22;32278;51.810;4.712;2022-10-16T11:43:36;18.40;99.90
46552;DHT22;32278;51.810;4.712;2022-10-16T11:46:26;18.60;99.90
46552;DHT22;32278;51.810;4.712;2022-10-16T11:49:03;19.10;99.90
46552;DHT22;32278;51.810;4.712;2022-10-16T11:51:45;19.00;99.90
46552;DHT22;32278;51.810;4.712;2022-10-16T11:54:35;19.10;99.90
46552;DHT22;32278;51.810;4.712;2022-10-16T11:57:12;19.10;99.90
46552;DHT22;32278;51.810;4.712;2022-10-16T11:59:46;19.00;99.90
46552;DHT22;32278;51.810;4.712;2022-10-16T12:05:18;19.10;99.90
46552;DHT22;32278;51.810;4.712;2022-10-16T12:08:34;19.30;99.90
46552;DHT22;32278;51.810;4.712;2022-10-16T12:10:43;19.20;99.90
46552;DHT22;32278;51.810;4.712;2022-10-16T12:13:44;19.00;99.90
46552;DHT22;32278;51.810;4.712;2022-10-16T12:18:41;18.70;99.90
46552;DHT22;32278;51.810;4.712;2022-10-16T12:21:07;18.70;99.90
46552;DHT22;32278;51.810;4.712;2022-10-16T12:23:38;18.70;99.90
46552;DHT22;32278;51.810;4.712;2022-10-16T12:26:11;18.60;99.90
46552;DHT22;32278;51.810;4.712;2022-10-16T12:28:37;18.50;99.90
46552;DHT22;32278;51.810;4.712;2022-10-16T12:31:09;18.80;99.90
46552;DHT22;32278;51.810;4.712;2022-10-16T12:33:56;18.80;99.90
46552;DHT22;32278;51.810;4.712;2022-10-16T12:36:34;19.30;99.90
46552;DHT22;32278;51.810;4.712;2022-10-16T12:39:01;19.90;99.90
46552;DHT22;32278;51.810;4.712;2022-10-16T12:41:32;20.00;99.90
46552;DHT22;32278;51.810;4.712;2022-10-16T12:43:59;20.10;99.90
46552;DHT22;32278;51.810;4.712;2022-10-16T12:51:40;20.40;99.90
46552;DHT22;32278;51.810;4.712;2022-10-16T12:54:17;19.80;99.90
46552;DHT22;32278;51.810;4.712;2022-10-16T13:02:39;19.30;99.90
46552;DHT22;32278;51.810;4.712;2022-10-16T13:05:16;19.10;99.90
46552;DHT22;32278;51.810;4.712;2022-10-16T13:10:41;19.10;99.90
46552;DHT22;32278;51.810;4.712;2022-10-16T13:27:18;18.30;99.90
46552;DHT22;32278;51.810;4.712;2022-10-16T13:29:52;18.40;99.90
46552;DHT22;32278;51.810;4.712;2022-10-16T13:32:21;18.50;99.90
46552;DHT22;32278;51.810;4.712;2022-10-16T13:34:49;18.60;99.90
46552;DHT22;32278;51.810;4.712;2022-10-16T13:37:21;18.60;99.90
46552;DHT22;32278;51.810;4.712;2022-10-16T13:39:47;18.70;99.90
46552;DHT22;32278;51.810;4.712;2022-10-16T13:42:18;18.60;99.90
46552;DHT22;32278;51.810;4.712;2022-10-16T13:44:49;18.50;99.90
46552;DHT22;32278;51.810;4.712;2022-10-16T13:49:41;18.50;99.90
46552;DHT22;32278;51.810;4.712;2022-10-16T13:52:17;18.60;99.90
46552;DHT22;32278;51.810;4.712;2022-10-16T13:54:43;18.70;99.90
46552;DHT22;32278;51.810;4.712;2022-10-16T13:57:16;18.70;99.90
46552;DHT22;32278;51.810;4.712;2022-10-16T13:59:42;18.60;99.90
46552;DHT22;32278;51.810;4.712;2022-10-16T14:02:31;18.70;99.90
46552;DHT22;32278;51.810;4.712;2022-10-16T14:05:00;18.70;99.90
46552;DHT22;32278;51.810;4.712;2022-10-16T14:07:28;18.60;99.90
46552;DHT22;32278;51.810;4.712;2022-10-16T14:09:55;18.70;99.90
46552;DHT22;32278;51.810;4.712;2022-10-16T14:12:23;18.60;99.90
46552;DHT22;32278;51.810;4.712;2022-10-16T14:14:51;18.70;99.90
46552;DHT22;32278;51.810;4.712;2022-10-16T14:17:26;18.80;99.90
46552;DHT22;32278;51.810;4.712;2022-10-16T14:19:54;18.80;99.90
46552;DHT22;32278;51.810;4.712;2022-10-16T14:22:38;18.70;99.90
46552;DHT22;32278;51.810;4.712;2022-10-16T14:28:14;18.40;99.90
46552;DHT22;32278;51.810;4.712;2022-10-16T14:33:33;18.60;99.90
46552;DHT22;32278;51.810;4.712;2022-10-16T14:36:26;18.70;99.90
46552;DHT22;32278;51.810;4.712;2022-10-16T14:39:13;18.70;99.90
46552;DHT22;32278;51.810;4.712;2022-10-16T14:41:46;18.80;99.90
46552;DHT22;32278;51.810;4.712;2022-10-16T14:44:12;18.80;99.90
46552;DHT22;32278;51.810;4.712;2022-10-16T14:46:40;18.80;99.90
46552;DHT22;32278;51.810;4.712;2022-10-16T14:51:39;18.60;99.90
46552;DHT22;32278;51.810;4.712;2022-10-16T14:54:11;18.60;99.90
46552;DHT22;32278;51.810;4.712;2022-10-16T14:59:39;18.90;99.90
46552;DHT22;32278;51.810;4.712;2022-10-16T15:04:46;18.90;99.90
46552;DHT22;32278;51.810;4.712;2022-10-16T15:07:12;18.80;99.90
46552;DHT22;32278;51.810;4.712;2022-10-16T15:09:38;18.80;99.90
46552;DHT22;32278;51.810;4.712;2022-10-16T15:12:03;18.80;99.90
46552;DHT22;32278;51.810;4.712;2022-10-16T15:14:29;18.90;99.90
46552;DHT22;32278;51.810;4.712;2022-10-16T15:16:54;18.90;99.90
46552;DHT22;32278;51.810;4.712;2022-10-16T15:19:20;18.90;99.90
46552;DHT22;32278;51.810;4.712;2022-10-16T15:21:46;18.60;99.90
46552;DHT22;32278;51.810;4.712;2022-10-16T15:24:13;18.50;99.90
46552;DHT22;32278;51.810;4.712;2022-10-16T15:26:39;18.40;99.90
46552;DHT22;32278;51.810;4.712;2022-10-16T15:29:04;18.30;99.90
46552;DHT22;32278;51.810;4.712;2022-10-16T15:31:30;18.40;99.90
46552;DHT22;32278;51.810;4.712;2022-10-16T15:33:56;18.50;99.90
46552;DHT22;32278;51.810;4.712;2022-10-16T15:36:28;18.50;99.90
46552;DHT22;32278;51.810;4.712;2022-10-16T15:38:55;18.50;99.90
46552;DHT22;32278;51.810;4.712;2022-10-16T15:41:21;18.40;99.90
46552;DHT22;32278;51.810;4.712;2022-10-16T15:43:51;18.20;99.90
46552;DHT22;32278;51.810;4.712;2022-10-16T15:46:21;18.30;99.90
46552;DHT22;32278;51.810;4.712;2022-10-16T15:48:48;18.40;99.90
46552;DHT22;32278;51.810;4.712;2022-10-16T15:51:14;18.10;99.90
46552;DHT22;32278;51.810;4.712;2022-10-16T15:53:40;17.90;99.90
46552;DHT22;32278;51.810;4.712;2022-10-16T15:56:07;17.90;99.90
46552;DHT22;32278;51.810;4.712;2022-10-16T15:58:33;18.00;99.90
46552;DHT22;32278;51.810;4.712;2022-10-16T16:01:00;18.10;99.90
46552;DHT22;32278;51.810;4.712;2022-10-16T16:03:27;18.10;99.90
46552;DHT22;32278;51.810;4.712;2022-10-16T16:05:53;18.00;99.90
46552;DHT22;32278;51.810;4.712;2022-10-16T16:08:19;17.80;99.90
46552;DHT22;32278;51.810;4.712;2022-10-16T16:10:45;17.70;99.90
46552;DHT22;32278;51.810;4.712;2022-10-16T16:13:11;17.70;99.90
46552;DHT22;32278;51.810;4.712;2022-10-16T16:15:40;17.80;99.90
46552;DHT22;32278;51.810;4.712;2022-10-16T16:18:06;17.70;99.90
46552;DHT22;32278;51.810;4.712;2022-10-16T16:20:32;17.70;99.90
46552;DHT22;32278;51.810;4.712;2022-10-16T16:22:57;17.60;99.90
46552;DHT22;32278;51.810;4.712;2022-10-16T16:25:23;17.60;99.90
46552;DHT22;32278;51.810;4.712;2022-10-16T16:27:49;17.40;99.90
46552;DHT22;32278;51.810;4.712;2022-10-16T16:30:14;17.50;99.90
46552;DHT22;32278;51.810;4.712;2022-10-16T16:32:40;17.50;99.90
46552;DHT22;32278;51.810;4.712;2022-10-16T16:35:06;17.30;99.90
46552;DHT22;32278;51.810;4.712;2022-10-16T16:37:31;17.20;99.90
46552;DHT22;32278;51.810;4.712;2022-10-16T16:39:57;17.10;99.90
46552;DHT22;32278;51.810;4.712;2022-10-16T16:42:27;17.00;99.90
46552;DHT22;32278;51.810;4.712;2022-10-16T16:44:53;17.10;99.90
46552;DHT22;32278;51.810;4.712;2022-10-16T16:47:18;17.30;99.90
46552;DHT22;32278;51.810;4.712;2022-10-16T16:49:44;17.20;99.90
46552;DHT22;32278;51.810;4.712;2022-10-16T16:52:11;17.20;99.90
46552;DHT22;32278;51.810;4.712;2022-10-16T16:54:37;17.20;99.90
46552;DHT22;32278;51.810;4.712;2022-10-16T16:57:03;17.20;99.90
46552;DHT22;32278;51.810;4.712;2022-10-16T16:59:29;17.10;99.90
46552;DHT22;32278;51.810;4.712;2022-10-16T17:02:01;17.00;99.90
46552;DHT22;32278;51.810;4.712;2022-10-16T17:04:27;17.10;99.90
46552;DHT22;32278;51.810;4.712;2022-10-16T17:06:55;17.10;99.90
46552;DHT22;32278;51.810;4.712;2022-10-16T17:09:22;17.10;99.90
46552;DHT22;32278;51.810;4.712;2022-10-16T17:11:48;17.20;99.90
46552;DHT22;32278;51.810;4.712;2022-10-16T17:14:14;17.10;99.90
46552;DHT22;32278;51.810;4.712;2022-10-16T17:16:40;17.10;99.90
46552;DHT22;32278;51.810;4.712;2022-10-16T17:19:14;17.00;99.90
46552;DHT22;32278;51.810;4.712;2022-10-16T17:21:41;17.10;99.90
46552;DHT22;32278;51.810;4.712;2022-10-16T17:24:06;17.20;99.90
46552;DHT22;32278;51.810;4.712;2022-10-16T17:26:32;17.30;99.90
46552;DHT22;32278;51.810;4.712;2022-10-16T17:29:01;17.30;99.90
46552;DHT22;32278;51.810;4.712;2022-10-16T17:31:32;17.20;99.90
46552;DHT22;32278;51.810;4.712;2022-10-16T17:33:59;17.20;99.90
46552;DHT22;32278;51.810;4.712;2022-10-16T17:36:25;17.10;99.90
46552;DHT22;32278;51.810;4.712;2022-10-16T17:38:54;17.10;99.90